sensor_id;sensor_type;location;lat;lon;timestamp;P1;durP1;ratioP1;P2;durP2;ratioP2
56770;SDS011;42641;59.794;17.616;2023-10-31T00:01:54;0.70;;;0.70;;
56770;SDS011;42641;59.794;17.616;2023-10-31T00:04:21;0.93;;;0.80;;
56770;SDS011;42641;59.794;17.616;2023-10-31T00:06:47;0.70;;;0.70;;
56770;SDS011;42641;59.794;17.616;2023-10-31T00:09:14;1.00;;;0.80;;
56770;SDS011;42641;59.794;17.616;2023-10-31T00:11:43;0.80;;;0.80;;
56770;SDS011;42641;59.794;17.616;2023-10-31T00:14:10;0.80;;;0.80;;
56770;SDS011;42641;59.794;17.616;2023-10-31T00:16:39;1.47;;;0.90;;
56770;SDS011;42641;59.794;17.616;2023-10-31T00:19:05;1.03;;;0.93;;
56770;SDS011;42641;59.794;17.616;2023-10-31T00:21:31;0.80;;;0.80;;
56770;SDS011;42641;59.794;17.616;2023-10-31T00:23:58;1.13;;;1.03;;
56770;SDS011;42641;59.794;17.616;2023-10-31T00:26:24;0.93;;;0.90;;
56770;SDS011;42641;59.794;17.616;2023-10-31T00:28:52;1.53;;;0.93;;
56770;SDS011;42641;59.794;17.616;2023-10-31T00:31:19;1.20;;;1.10;;
56770;SDS011;42641;59.794;17.616;2023-10-31T00:33:46;1.07;;;0.97;;
56770;SDS011;42641;59.794;17.616;2023-10-31T00:36:12;0.80;;;0.80;;
56770;SDS011;42641;59.794;17.616;2023-10-31T00:38:39;0.80;;;0.80;;
56770;SDS011;42641;59.794;17.616;2023-10-31T00:41:05;1.40;;;1.30;;
56770;SDS011;42641;59.794;17.616;2023-10-31T00:43:32;1.20;;;1.10;;
56770;SDS011;42641;59.794;17.616;2023-10-31T00:45:58;1.30;;;1.20;;
56770;SDS011;42641;59.794;17.616;2023-10-31T00:48:24;1.90;;;1.10;;
56770;SDS011;42641;59.794;17.616;2023-10-31T00:50:51;3.70;;;1.10;;
56770;SDS011;42641;59.794;17.616;2023-10-31T00:53:17;1.63;;;1.10;;
56770;SDS011;42641;59.794;17.616;2023-10-31T00:55:43;1.50;;;1.40;;
56770;SDS011;42641;59.794;17.616;2023-10-31T00:58:10;1.27;;;1.17;;
56770;SDS011;42641;59.794;17.616;2023-10-31T01:00:37;1.30;;;1.10;;
56770;SDS011;42641;59.794;17.616;2023-10-31T01:03:03;2.43;;;1.43;;
56770;SDS011;42641;59.794;17.616;2023-10-31T01:05:29;1.40;;;1.30;;
56770;SDS011;42641;59.794;17.616;2023-10-31T01:07:56;2.00;;;1.30;;
56770;SDS011;42641;59.794;17.616;2023-10-31T01:10:22;1.40;;;1.30;;
56770;SDS011;42641;59.794;17.616;2023-10-31T01:12:48;1.03;;;0.97;;
56770;SDS011;42641;59.794;17.616;2023-10-31T01:15:15;3.57;;;1.47;;
56770;SDS011;42641;59.794;17.616;2023-10-31T01:17:41;1.57;;;1.47;;
56770;SDS011;42641;59.794;17.616;2023-10-31T01:20:07;1.40;;;1.30;;
56770;SDS011;42641;59.794;17.616;2023-10-31T01:22:35;1.63;;;1.37;;
56770;SDS011;42641;59.794;17.616;2023-10-31T01:25:01;1.40;;;1.30;;
56770;SDS011;42641;59.794;17.616;2023-10-31T01:27:30;1.20;;;1.10;;
56770;SDS011;42641;59.794;17.616;2023-10-31T01:29:57;2.17;;;1.73;;
56770;SDS011;42641;59.794;17.616;2023-10-31T01:32:23;1.87;;;1.47;;
56770;SDS011;42641;59.794;17.616;2023-10-31T01:34:50;1.97;;;1.70;;
56770;SDS011;42641;59.794;17.616;2023-10-31T01:37:16;1.60;;;1.50;;
56770;SDS011;42641;59.794;17.616;2023-10-31T01:39:45;1.73;;;1.40;;
56770;SDS011;42641;59.794;17.616;2023-10-31T01:42:16;3.93;;;1.40;;
56770;SDS011;42641;59.794;17.616;2023-10-31T01:44:43;3.63;;;1.80;;
56770;SDS011;42641;59.794;17.616;2023-10-31T01:47:09;1.77;;;1.67;;
56770;SDS011;42641;59.794;17.616;2023-10-31T01:49:36;1.50;;;1.40;;
56770;SDS011;42641;59.794;17.616;2023-10-31T01:52:04;3.63;;;1.60;;
56770;SDS011;42641;59.794;17.616;2023-10-31T01:54:32;1.70;;;1.50;;
56770;SDS011;42641;59.794;17.616;2023-10-31T01:57:01;3.10;;;1.70;;
56770;SDS011;42641;59.794;17.616;2023-10-31T01:59:30;4.13;;;2.10;;
56770;SDS011;42641;59.794;17.616;2023-10-31T02:01:57;2.43;;;1.70;;
56770;SDS011;42641;59.794;17.616;2023-10-31T02:04:26;1.90;;;1.77;;
56770;SDS011;42641;59.794;17.616;2023-10-31T02:06:52;1.97;;;1.73;;
56770;SDS011;42641;59.794;17.616;2023-10-31T02:09:19;2.00;;;1.80;;
56770;SDS011;42641;59.794;17.616;2023-10-31T02:11:50;1.73;;;1.37;;
56770;SDS011;42641;59.794;17.616;2023-10-31T02:14:16;3.37;;;1.50;;
56770;SDS011;42641;59.794;17.616;2023-10-31T02:16:43;1.10;;;1.00;;
56770;SDS011;42641;59.794;17.616;2023-10-31T02:19:10;1.03;;;1.03;;
56770;SDS011;42641;59.794;17.616;2023-10-31T02:21:39;0.60;;;0.60;;
56770;SDS011;42641;59.794;17.616;2023-10-31T02:24:06;0.80;;;0.80;;
56770;SDS011;42641;59.794;17.616;2023-10-31T02:26:33;0.60;;;0.60;;
56770;SDS011;42641;59.794;17.616;2023-10-31T02:29:01;0.63;;;0.63;;
56770;SDS011;42641;59.794;17.616;2023-10-31T02:31:30;0.40;;;0.40;;
56770;SDS011;42641;59.794;17.616;2023-10-31T02:33:56;0.50;;;0.30;;
56770;SDS011;42641;59.794;17.616;2023-10-31T02:36:23;1.17;;;0.50;;
56770;SDS011;42641;59.794;17.616;2023-10-31T02:38:49;0.30;;;0.30;;
56770;SDS011;42641;59.794;17.616;2023-10-31T02:41:16;1.03;;;0.50;;
56770;SDS011;42641;59.794;17.616;2023-10-31T02:43:42;0.40;;;0.40;;
56770;SDS011;42641;59.794;17.616;2023-10-31T02:46:09;0.30;;;0.30;;
56770;SDS011;42641;59.794;17.616;2023-10-31T02:48:37;0.50;;;0.50;;
56770;SDS011;42641;59.794;17.616;2023-10-31T02:51:06;0.40;;;0.40;;
56770;SDS011;42641;59.794;17.616;2023-10-31T02:53:34;0.60;;;0.60;;
56770;SDS011;42641;59.794;17.616;2023-10-31T02:56:02;0.40;;;0.40;;
56770;SDS011;42641;59.794;17.616;2023-10-31T02:58:29;0.63;;;0.63;;
56770;SDS011;42641;59.794;17.616;2023-10-31T03:00:55;1.03;;;0.67;;
56770;SDS011;42641;59.794;17.616;2023-10-31T03:03:21;0.60;;;0.60;;
56770;SDS011;42641;59.794;17.616;2023-10-31T03:05:48;0.60;;;0.60;;
56770;SDS011;42641;59.794;17.616;2023-10-31T03:08:15;0.50;;;0.50;;
56770;SDS011;42641;59.794;17.616;2023-10-31T03:10:47;0.57;;;0.57;;
56770;SDS011;42641;59.794;17.616;2023-10-31T03:13:16;0.30;;;0.30;;
56770;SDS011;42641;59.794;17.616;2023-10-31T03:15:46;0.60;;;0.57;;
56770;SDS011;42641;59.794;17.616;2023-10-31T03:18:13;0.60;;;0.60;;
56770;SDS011;42641;59.794;17.616;2023-10-31T03:20:43;1.97;;;0.90;;
56770;SDS011;42641;59.794;17.616;2023-10-31T03:23:11;0.57;;;0.53;;
56770;SDS011;42641;59.794;17.616;2023-10-31T03:25:39;0.50;;;0.50;;
56770;SDS011;42641;59.794;17.616;2023-10-31T03:28:09;0.80;;;0.70;;
56770;SDS011;42641;59.794;17.616;2023-10-31T03:30:45;0.70;;;0.70;;
56770;SDS011;42641;59.794;17.616;2023-10-31T03:33:13;0.77;;;0.60;;
56770;SDS011;42641;59.794;17.616;2023-10-31T03:35:40;0.80;;;0.70;;
56770;SDS011;42641;59.794;17.616;2023-10-31T03:38:06;0.70;;;0.70;;
56770;SDS011;42641;59.794;17.616;2023-10-31T03:40:33;0.80;;;0.80;;
56770;SDS011;42641;59.794;17.616;2023-10-31T03:43:00;0.80;;;0.80;;
56770;SDS011;42641;59.794;17.616;2023-10-31T03:45:26;0.77;;;0.77;;
56770;SDS011;42641;59.794;17.616;2023-10-31T04:37:47;1.13;;;1.03;;
56770;SDS011;42641;59.794;17.616;2023-10-31T04:40:14;0.90;;;0.90;;
56770;SDS011;42641;59.794;17.616;2023-10-31T04:42:40;1.23;;;0.90;;
56770;SDS011;42641;59.794;17.616;2023-10-31T04:45:07;1.10;;;1.00;;
56770;SDS011;42641;59.794;17.616;2023-10-31T04:47:34;1.00;;;1.00;;
56770;SDS011;42641;59.794;17.616;2023-10-31T04:50:00;0.90;;;0.90;;
56770;SDS011;42641;59.794;17.616;2023-10-31T04:52:27;1.00;;;1.00;;
56770;SDS011;42641;59.794;17.616;2023-10-31T04:54:53;1.37;;;1.27;;
56770;SDS011;42641;59.794;17.616;2023-10-31T05:23:10;1.27;;;1.17;;
56770;SDS011;42641;59.794;17.616;2023-10-31T05:56:50;2.20;;;1.73;;
56770;SDS011;42641;59.794;17.616;2023-10-31T06:05:19;2.37;;;1.97;;
56770;SDS011;42641;59.794;17.616;2023-10-31T06:07:46;2.40;;;2.20;;
56770;SDS011;42641;59.794;17.616;2023-10-31T06:10:12;2.77;;;2.00;;
56770;SDS011;42641;59.794;17.616;2023-10-31T06:12:38;3.47;;;2.40;;
56770;SDS011;42641;59.794;17.616;2023-10-31T06:15:05;2.63;;;2.37;;
56770;SDS011;42641;59.794;17.616;2023-10-31T06:17:33;3.43;;;2.70;;
56770;SDS011;42641;59.794;17.616;2023-10-31T06:20:01;2.67;;;2.40;;
56770;SDS011;42641;59.794;17.616;2023-10-31T06:22:27;4.27;;;2.83;;
56770;SDS011;42641;59.794;17.616;2023-10-31T06:24:54;3.13;;;2.60;;
56770;SDS011;42641;59.794;17.616;2023-10-31T06:27:20;3.37;;;2.30;;
56770;SDS011;42641;59.794;17.616;2023-10-31T06:29:47;3.10;;;2.07;;
56770;SDS011;42641;59.794;17.616;2023-10-31T06:32:13;2.40;;;2.10;;
56770;SDS011;42641;59.794;17.616;2023-10-31T06:34:40;2.67;;;2.10;;
56770;SDS011;42641;59.794;17.616;2023-10-31T06:37:06;2.40;;;2.20;;
56770;SDS011;42641;59.794;17.616;2023-10-31T06:39:32;4.20;;;2.27;;
56770;SDS011;42641;59.794;17.616;2023-10-31T06:41:59;3.37;;;2.43;;
56770;SDS011;42641;59.794;17.616;2023-10-31T06:44:25;3.70;;;2.67;;
56770;SDS011;42641;59.794;17.616;2023-10-31T06:46:52;4.90;;;2.83;;
56770;SDS011;42641;59.794;17.616;2023-10-31T06:49:18;2.40;;;2.20;;
56770;SDS011;42641;59.794;17.616;2023-10-31T06:51:46;3.80;;;2.83;;
56770;SDS011;42641;59.794;17.616;2023-10-31T06:54:12;4.53;;;2.80;;
56770;SDS011;42641;59.794;17.616;2023-10-31T06:56:39;3.33;;;2.70;;
56770;SDS011;42641;59.794;17.616;2023-10-31T06:59:05;2.93;;;2.63;;
56770;SDS011;42641;59.794;17.616;2023-10-31T07:01:31;4.87;;;2.97;;
56770;SDS011;42641;59.794;17.616;2023-10-31T07:03:58;4.33;;;2.80;;
56770;SDS011;42641;59.794;17.616;2023-10-31T07:06:24;3.53;;;2.70;;
56770;SDS011;42641;59.794;17.616;2023-10-31T07:08:51;4.37;;;2.57;;
56770;SDS011;42641;59.794;17.616;2023-10-31T07:11:17;5.37;;;3.37;;
56770;SDS011;42641;59.794;17.616;2023-10-31T07:13:43;5.30;;;2.80;;
56770;SDS011;42641;59.794;17.616;2023-10-31T07:16:10;6.03;;;2.90;;
56770;SDS011;42641;59.794;17.616;2023-10-31T07:18:36;3.13;;;2.80;;
56770;SDS011;42641;59.794;17.616;2023-10-31T07:21:03;4.33;;;2.87;;
56770;SDS011;42641;59.794;17.616;2023-10-31T07:23:29;5.23;;;3.33;;
56770;SDS011;42641;59.794;17.616;2023-10-31T07:25:56;4.43;;;2.90;;
56770;SDS011;42641;59.794;17.616;2023-10-31T07:28:22;6.50;;;3.93;;
56770;SDS011;42641;59.794;17.616;2023-10-31T07:30:49;7.60;;;3.60;;
56770;SDS011;42641;59.794;17.616;2023-10-31T07:33:16;3.97;;;3.33;;
56770;SDS011;42641;59.794;17.616;2023-10-31T07:35:42;5.37;;;3.97;;
56770;SDS011;42641;59.794;17.616;2023-10-31T07:38:09;11.17;;;3.93;;
56770;SDS011;42641;59.794;17.616;2023-10-31T07:40:35;6.43;;;4.00;;
56770;SDS011;42641;59.794;17.616;2023-10-31T07:43:01;6.20;;;4.07;;
56770;SDS011;42641;59.794;17.616;2023-10-31T07:45:28;5.93;;;4.07;;
56770;SDS011;42641;59.794;17.616;2023-10-31T07:47:54;9.50;;;4.33;;
56770;SDS011;42641;59.794;17.616;2023-10-31T07:50:20;8.10;;;3.83;;
56770;SDS011;42641;59.794;17.616;2023-10-31T07:52:47;7.03;;;4.00;;
56770;SDS011;42641;59.794;17.616;2023-10-31T07:55:13;12.47;;;4.97;;
56770;SDS011;42641;59.794;17.616;2023-10-31T07:57:39;15.40;;;4.77;;
56770;SDS011;42641;59.794;17.616;2023-10-31T08:00:09;5.40;;;3.63;;
56770;SDS011;42641;59.794;17.616;2023-10-31T08:02:38;6.70;;;4.00;;
56770;SDS011;42641;59.794;17.616;2023-10-31T08:05:05;9.77;;;4.17;;
56770;SDS011;42641;59.794;17.616;2023-10-31T08:07:33;21.23;;;4.50;;
56770;SDS011;42641;59.794;17.616;2023-10-31T08:09:59;10.03;;;4.20;;
56770;SDS011;42641;59.794;17.616;2023-10-31T08:12:25;4.50;;;3.63;;
56770;SDS011;42641;59.794;17.616;2023-10-31T08:14:52;5.97;;;3.60;;
56770;SDS011;42641;59.794;17.616;2023-10-31T08:17:18;8.20;;;4.00;;
56770;SDS011;42641;59.794;17.616;2023-10-31T08:19:44;7.20;;;3.43;;
56770;SDS011;42641;59.794;17.616;2023-10-31T08:22:12;6.03;;;3.30;;
56770;SDS011;42641;59.794;17.616;2023-10-31T08:24:39;5.23;;;2.97;;
56770;SDS011;42641;59.794;17.616;2023-10-31T09:36:39;2.83;;;1.90;;
56770;SDS011;42641;59.794;17.616;2023-10-31T09:39:07;3.73;;;1.70;;
56770;SDS011;42641;59.794;17.616;2023-10-31T09:41:34;1.73;;;1.60;;
56770;SDS011;42641;59.794;17.616;2023-10-31T09:44:00;1.70;;;1.60;;
56770;SDS011;42641;59.794;17.616;2023-10-31T09:46:28;2.50;;;1.90;;
56770;SDS011;42641;59.794;17.616;2023-10-31T09:48:54;2.27;;;1.67;;
56770;SDS011;42641;59.794;17.616;2023-10-31T09:51:22;1.67;;;1.43;;
56770;SDS011;42641;59.794;17.616;2023-10-31T09:53:48;1.87;;;1.47;;
56770;SDS011;42641;59.794;17.616;2023-10-31T09:56:19;1.97;;;1.50;;
56770;SDS011;42641;59.794;17.616;2023-10-31T09:58:46;1.70;;;1.40;;
56770;SDS011;42641;59.794;17.616;2023-10-31T10:01:12;2.90;;;1.43;;
56770;SDS011;42641;59.794;17.616;2023-10-31T10:03:42;2.70;;;1.60;;
56770;SDS011;42641;59.794;17.616;2023-10-31T10:06:09;2.37;;;1.40;;
56770;SDS011;42641;59.794;17.616;2023-10-31T10:08:39;1.43;;;1.33;;
56770;SDS011;42641;59.794;17.616;2023-10-31T10:11:06;1.77;;;1.40;;
56770;SDS011;42641;59.794;17.616;2023-10-31T10:13:32;2.63;;;1.50;;
56770;SDS011;42641;59.794;17.616;2023-10-31T10:15:59;2.27;;;1.67;;
56770;SDS011;42641;59.794;17.616;2023-10-31T10:18:26;2.23;;;1.53;;
56770;SDS011;42641;59.794;17.616;2023-10-31T10:21:11;1.70;;;1.60;;
56770;SDS011;42641;59.794;17.616;2023-10-31T10:23:37;1.53;;;1.43;;
56770;SDS011;42641;59.794;17.616;2023-10-31T10:26:03;2.17;;;1.73;;
56770;SDS011;42641;59.794;17.616;2023-10-31T10:28:30;2.77;;;2.10;;
56770;SDS011;42641;59.794;17.616;2023-10-31T10:30:58;1.70;;;1.60;;
56770;SDS011;42641;59.794;17.616;2023-10-31T10:33:25;3.37;;;1.50;;
56770;SDS011;42641;59.794;17.616;2023-10-31T10:35:51;1.83;;;1.50;;
56770;SDS011;42641;59.794;17.616;2023-10-31T10:38:20;2.10;;;1.60;;
56770;SDS011;42641;59.794;17.616;2023-10-31T10:40:48;2.90;;;1.50;;
56770;SDS011;42641;59.794;17.616;2023-10-31T10:43:21;2.00;;;1.73;;
56770;SDS011;42641;59.794;17.616;2023-10-31T10:45:56;1.90;;;1.67;;
56770;SDS011;42641;59.794;17.616;2023-10-31T10:48:27;2.10;;;1.70;;
56770;SDS011;42641;59.794;17.616;2023-10-31T10:50:57;1.33;;;1.23;;
56770;SDS011;42641;59.794;17.616;2023-10-31T10:53:34;1.57;;;1.40;;
56770;SDS011;42641;59.794;17.616;2023-10-31T10:56:18;1.40;;;1.30;;
56770;SDS011;42641;59.794;17.616;2023-10-31T10:58:56;1.50;;;1.40;;
56770;SDS011;42641;59.794;17.616;2023-10-31T11:01:30;1.03;;;1.00;;
56770;SDS011;42641;59.794;17.616;2023-10-31T11:03:58;1.67;;;1.30;;
56770;SDS011;42641;59.794;17.616;2023-10-31T11:06:25;0.80;;;0.80;;
56770;SDS011;42641;59.794;17.616;2023-10-31T11:08:52;1.03;;;1.00;;
56770;SDS011;42641;59.794;17.616;2023-10-31T11:11:21;0.73;;;0.73;;
56770;SDS011;42641;59.794;17.616;2023-10-31T11:13:49;0.80;;;0.80;;
56770;SDS011;42641;59.794;17.616;2023-10-31T11:16:17;0.90;;;0.80;;
56770;SDS011;42641;59.794;17.616;2023-10-31T11:19:07;0.60;;;0.60;;
56770;SDS011;42641;59.794;17.616;2023-10-31T11:21:35;1.10;;;1.00;;
56770;SDS011;42641;59.794;17.616;2023-10-31T11:24:02;1.03;;;1.00;;
56770;SDS011;42641;59.794;17.616;2023-10-31T11:26:32;1.53;;;0.90;;
56770;SDS011;42641;59.794;17.616;2023-10-31T11:29:05;0.70;;;0.70;;
56770;SDS011;42641;59.794;17.616;2023-10-31T11:31:32;1.00;;;0.83;;
56770;SDS011;42641;59.794;17.616;2023-10-31T11:34:00;0.70;;;0.70;;
56770;SDS011;42641;59.794;17.616;2023-10-31T11:36:31;0.83;;;0.83;;
56770;SDS011;42641;59.794;17.616;2023-10-31T11:39:13;1.67;;;0.90;;
56770;SDS011;42641;59.794;17.616;2023-10-31T11:41:45;1.33;;;1.23;;
56770;SDS011;42641;59.794;17.616;2023-10-31T11:44:16;1.03;;;0.70;;
56770;SDS011;42641;59.794;17.616;2023-10-31T11:46:42;2.20;;;0.90;;
56770;SDS011;42641;59.794;17.616;2023-10-31T11:49:13;0.53;;;0.53;;
56770;SDS011;42641;59.794;17.616;2023-10-31T11:51:39;0.60;;;0.60;;
56770;SDS011;42641;59.794;17.616;2023-10-31T11:54:06;1.50;;;0.90;;
56770;SDS011;42641;59.794;17.616;2023-10-31T11:56:34;0.70;;;0.70;;
56770;SDS011;42641;59.794;17.616;2023-10-31T11:59:04;0.77;;;0.77;;
56770;SDS011;42641;59.794;17.616;2023-10-31T12:01:34;0.80;;;0.80;;
56770;SDS011;42641;59.794;17.616;2023-10-31T12:04:09;1.00;;;0.90;;
56770;SDS011;42641;59.794;17.616;2023-10-31T12:06:46;0.50;;;0.50;;
56770;SDS011;42641;59.794;17.616;2023-10-31T12:09:22;0.47;;;0.47;;
56770;SDS011;42641;59.794;17.616;2023-10-31T12:11:48;0.73;;;0.70;;
56770;SDS011;42641;59.794;17.616;2023-10-31T12:14:18;0.50;;;0.50;;
56770;SDS011;42641;59.794;17.616;2023-10-31T12:16:46;0.80;;;0.80;;
56770;SDS011;42641;59.794;17.616;2023-10-31T12:19:13;0.80;;;0.63;;
56770;SDS011;42641;59.794;17.616;2023-10-31T12:21:41;0.40;;;0.40;;
56770;SDS011;42641;59.794;17.616;2023-10-31T12:24:16;0.70;;;0.70;;
56770;SDS011;42641;59.794;17.616;2023-10-31T12:26:43;0.50;;;0.50;;
56770;SDS011;42641;59.794;17.616;2023-10-31T12:29:14;0.70;;;0.53;;
56770;SDS011;42641;59.794;17.616;2023-10-31T12:31:47;0.60;;;0.60;;
56770;SDS011;42641;59.794;17.616;2023-10-31T12:34:15;0.63;;;0.50;;
56770;SDS011;42641;59.794;17.616;2023-10-31T12:36:43;0.47;;;0.47;;
56770;SDS011;42641;59.794;17.616;2023-10-31T12:39:11;0.40;;;0.33;;
56770;SDS011;42641;59.794;17.616;2023-10-31T12:41:39;0.50;;;0.50;;
56770;SDS011;42641;59.794;17.616;2023-10-31T12:44:07;0.63;;;0.63;;
56770;SDS011;42641;59.794;17.616;2023-10-31T12:46:40;0.87;;;0.70;;
56770;SDS011;42641;59.794;17.616;2023-10-31T12:49:20;0.63;;;0.63;;
56770;SDS011;42641;59.794;17.616;2023-10-31T12:52:00;0.50;;;0.50;;
56770;SDS011;42641;59.794;17.616;2023-10-31T12:54:30;0.43;;;0.43;;
56770;SDS011;42641;59.794;17.616;2023-10-31T12:57:01;0.40;;;0.40;;
56770;SDS011;42641;59.794;17.616;2023-10-31T12:59:36;0.40;;;0.40;;
56770;SDS011;42641;59.794;17.616;2023-10-31T13:02:04;2.63;;;0.67;;
56770;SDS011;42641;59.794;17.616;2023-10-31T13:04:32;0.43;;;0.43;;
56770;SDS011;42641;59.794;17.616;2023-10-31T13:24:42;1.97;;;1.23;;
56770;SDS011;42641;59.794;17.616;2023-10-31T14:15:43;0.87;;;0.87;;
56770;SDS011;42641;59.794;17.616;2023-10-31T14:18:10;0.87;;;0.67;;
56770;SDS011;42641;59.794;17.616;2023-10-31T14:20:36;1.53;;;0.80;;
56770;SDS011;42641;59.794;17.616;2023-10-31T14:23:05;1.53;;;0.80;;
56770;SDS011;42641;59.794;17.616;2023-10-31T14:25:32;0.80;;;0.80;;
56770;SDS011;42641;59.794;17.616;2023-10-31T14:27:59;0.80;;;0.60;;
56770;SDS011;42641;59.794;17.616;2023-10-31T14:30:25;0.60;;;0.60;;
56770;SDS011;42641;59.794;17.616;2023-10-31T14:32:52;1.37;;;0.80;;
56770;SDS011;42641;59.794;17.616;2023-10-31T14:35:18;0.67;;;0.67;;
56770;SDS011;42641;59.794;17.616;2023-10-31T14:37:45;0.70;;;0.70;;
56770;SDS011;42641;59.794;17.616;2023-10-31T14:40:11;0.93;;;0.77;;
56770;SDS011;42641;59.794;17.616;2023-10-31T14:42:37;0.67;;;0.60;;
56770;SDS011;42641;59.794;17.616;2023-10-31T14:45:04;2.00;;;0.70;;
56770;SDS011;42641;59.794;17.616;2023-10-31T14:47:31;1.60;;;0.70;;
56770;SDS011;42641;59.794;17.616;2023-10-31T14:49:58;0.97;;;0.70;;
56770;SDS011;42641;59.794;17.616;2023-10-31T14:52:25;0.70;;;0.70;;
56770;SDS011;42641;59.794;17.616;2023-10-31T14:54:51;1.00;;;0.70;;
56770;SDS011;42641;59.794;17.616;2023-10-31T14:57:18;0.60;;;0.60;;
56770;SDS011;42641;59.794;17.616;2023-10-31T14:59:45;1.07;;;0.90;;
56770;SDS011;42641;59.794;17.616;2023-10-31T15:02:12;0.70;;;0.70;;
56770;SDS011;42641;59.794;17.616;2023-10-31T15:04:38;0.70;;;0.70;;
56770;SDS011;42641;59.794;17.616;2023-10-31T15:07:04;0.67;;;0.67;;
56770;SDS011;42641;59.794;17.616;2023-10-31T15:09:31;1.47;;;0.93;;
56770;SDS011;42641;59.794;17.616;2023-10-31T15:11:57;2.20;;;0.80;;
56770;SDS011;42641;59.794;17.616;2023-10-31T15:14:24;1.03;;;0.80;;
56770;SDS011;42641;59.794;17.616;2023-10-31T15:16:50;1.30;;;0.90;;
56770;SDS011;42641;59.794;17.616;2023-10-31T15:19:16;1.03;;;0.97;;
56770;SDS011;42641;59.794;17.616;2023-10-31T15:21:43;0.80;;;0.80;;
56770;SDS011;42641;59.794;17.616;2023-10-31T15:24:09;0.90;;;0.90;;
56770;SDS011;42641;59.794;17.616;2023-10-31T15:26:38;2.53;;;0.87;;
56770;SDS011;42641;59.794;17.616;2023-10-31T15:29:07;1.17;;;1.00;;
56770;SDS011;42641;59.794;17.616;2023-10-31T15:31:34;1.87;;;0.90;;
56770;SDS011;42641;59.794;17.616;2023-10-31T15:34:02;0.80;;;0.80;;
56770;SDS011;42641;59.794;17.616;2023-10-31T15:36:29;1.83;;;1.20;;
56770;SDS011;42641;59.794;17.616;2023-10-31T15:38:55;1.57;;;1.47;;
56770;SDS011;42641;59.794;17.616;2023-10-31T15:41:21;1.90;;;1.00;;
56770;SDS011;42641;59.794;17.616;2023-10-31T15:43:49;1.30;;;1.20;;
56770;SDS011;42641;59.794;17.616;2023-10-31T15:46:15;1.80;;;1.30;;
56770;SDS011;42641;59.794;17.616;2023-10-31T15:48:42;1.03;;;1.03;;
56770;SDS011;42641;59.794;17.616;2023-10-31T15:51:08;0.93;;;0.90;;
56770;SDS011;42641;59.794;17.616;2023-10-31T15:53:34;1.80;;;1.00;;
56770;SDS011;42641;59.794;17.616;2023-10-31T15:56:01;1.37;;;1.07;;
56770;SDS011;42641;59.794;17.616;2023-10-31T15:58:35;2.03;;;1.00;;
56770;SDS011;42641;59.794;17.616;2023-10-31T16:01:02;1.07;;;1.00;;
56770;SDS011;42641;59.794;17.616;2023-10-31T16:03:29;0.73;;;0.70;;
56770;SDS011;42641;59.794;17.616;2023-10-31T16:05:55;3.57;;;0.90;;
56770;SDS011;42641;59.794;17.616;2023-10-31T16:08:22;0.90;;;0.90;;
56770;SDS011;42641;59.794;17.616;2023-10-31T16:10:48;0.87;;;0.83;;
56770;SDS011;42641;59.794;17.616;2023-10-31T16:13:14;0.73;;;0.73;;
56770;SDS011;42641;59.794;17.616;2023-10-31T16:15:41;0.80;;;0.80;;
56770;SDS011;42641;59.794;17.616;2023-10-31T16:18:07;0.80;;;0.80;;
56770;SDS011;42641;59.794;17.616;2023-10-31T16:20:34;2.40;;;1.00;;
56770;SDS011;42641;59.794;17.616;2023-10-31T16:23:00;1.53;;;1.00;;
56770;SDS011;42641;59.794;17.616;2023-10-31T16:25:26;2.30;;;1.07;;
56770;SDS011;42641;59.794;17.616;2023-10-31T16:27:53;0.90;;;0.90;;
56770;SDS011;42641;59.794;17.616;2023-10-31T16:30:19;3.47;;;2.60;;
56770;SDS011;42641;59.794;17.616;2023-10-31T16:32:45;2.90;;;1.90;;
56770;SDS011;42641;59.794;17.616;2023-10-31T16:35:12;1.70;;;1.50;;
56770;SDS011;42641;59.794;17.616;2023-10-31T16:37:38;1.17;;;1.07;;
56770;SDS011;42641;59.794;17.616;2023-10-31T16:40:05;1.40;;;1.30;;
56770;SDS011;42641;59.794;17.616;2023-10-31T16:42:32;1.00;;;1.00;;
56770;SDS011;42641;59.794;17.616;2023-10-31T16:44:59;1.50;;;1.40;;
56770;SDS011;42641;59.794;17.616;2023-10-31T16:47:26;2.40;;;1.90;;
56770;SDS011;42641;59.794;17.616;2023-10-31T16:49:53;1.30;;;1.20;;
56770;SDS011;42641;59.794;17.616;2023-10-31T16:52:19;4.63;;;2.37;;
56770;SDS011;42641;59.794;17.616;2023-10-31T16:54:45;1.40;;;1.30;;
56770;SDS011;42641;59.794;17.616;2023-10-31T16:57:12;1.17;;;0.97;;
56770;SDS011;42641;59.794;17.616;2023-10-31T16:59:38;1.03;;;0.93;;
56770;SDS011;42641;59.794;17.616;2023-10-31T17:02:04;2.50;;;1.20;;
56770;SDS011;42641;59.794;17.616;2023-10-31T17:04:31;1.47;;;1.20;;
56770;SDS011;42641;59.794;17.616;2023-10-31T17:07:00;1.33;;;1.23;;
56770;SDS011;42641;59.794;17.616;2023-10-31T17:09:28;1.53;;;1.20;;
56770;SDS011;42641;59.794;17.616;2023-10-31T17:11:54;2.60;;;0.90;;
56770;SDS011;42641;59.794;17.616;2023-10-31T17:14:21;1.83;;;1.30;;
56770;SDS011;42641;59.794;17.616;2023-10-31T17:16:48;0.80;;;0.80;;
56770;SDS011;42641;59.794;17.616;2023-10-31T17:19:14;1.20;;;1.10;;
56770;SDS011;42641;59.794;17.616;2023-10-31T17:21:41;1.30;;;0.97;;
56770;SDS011;42641;59.794;17.616;2023-10-31T17:24:07;0.80;;;0.80;;
56770;SDS011;42641;59.794;17.616;2023-10-31T17:26:34;0.70;;;0.70;;
56770;SDS011;42641;59.794;17.616;2023-10-31T17:29:00;1.67;;;1.00;;
56770;SDS011;42641;59.794;17.616;2023-10-31T17:31:27;8.43;;;4.70;;
56770;SDS011;42641;59.794;17.616;2023-10-31T17:33:53;1.03;;;0.80;;
56770;SDS011;42641;59.794;17.616;2023-10-31T17:36:22;1.03;;;1.00;;
56770;SDS011;42641;59.794;17.616;2023-10-31T17:38:49;1.40;;;1.10;;
56770;SDS011;42641;59.794;17.616;2023-10-31T17:41:15;2.27;;;1.20;;
56770;SDS011;42641;59.794;17.616;2023-10-31T17:43:41;1.70;;;1.60;;
56770;SDS011;42641;59.794;17.616;2023-10-31T17:46:08;2.23;;;1.20;;
56770;SDS011;42641;59.794;17.616;2023-10-31T17:48:34;1.10;;;1.00;;
56770;SDS011;42641;59.794;17.616;2023-10-31T17:56:38;1.00;;;1.00;;
56770;SDS011;42641;59.794;17.616;2023-10-31T17:59:05;3.03;;;1.07;;
56770;SDS011;42641;59.794;17.616;2023-10-31T18:01:31;0.80;;;0.80;;
56770;SDS011;42641;59.794;17.616;2023-10-31T18:03:58;1.53;;;1.00;;
56770;SDS011;42641;59.794;17.616;2023-10-31T18:06:25;0.70;;;0.70;;
56770;SDS011;42641;59.794;17.616;2023-10-31T18:08:52;0.80;;;0.67;;
56770;SDS011;42641;59.794;17.616;2023-10-31T18:11:20;2.60;;;1.00;;
56770;SDS011;42641;59.794;17.616;2023-10-31T18:13:46;1.37;;;0.60;;
56770;SDS011;42641;59.794;17.616;2023-10-31T18:16:12;2.87;;;1.60;;
56770;SDS011;42641;59.794;17.616;2023-10-31T18:18:41;2.10;;;1.10;;
56770;SDS011;42641;59.794;17.616;2023-10-31T18:21:08;6.47;;;2.33;;
56770;SDS011;42641;59.794;17.616;2023-10-31T18:23:36;5.37;;;2.60;;
56770;SDS011;42641;59.794;17.616;2023-10-31T18:26:04;3.43;;;2.27;;
56770;SDS011;42641;59.794;17.616;2023-10-31T18:28:30;3.87;;;3.00;;
56770;SDS011;42641;59.794;17.616;2023-10-31T18:30:56;1.50;;;1.33;;
56770;SDS011;42641;59.794;17.616;2023-10-31T18:33:23;4.30;;;2.10;;
56770;SDS011;42641;59.794;17.616;2023-10-31T18:35:50;0.80;;;0.80;;
56770;SDS011;42641;59.794;17.616;2023-10-31T18:38:17;1.53;;;1.07;;
56770;SDS011;42641;59.794;17.616;2023-10-31T18:40:43;1.00;;;1.00;;
56770;SDS011;42641;59.794;17.616;2023-10-31T18:43:11;1.00;;;1.00;;
56770;SDS011;42641;59.794;17.616;2023-10-31T18:57:44;1.70;;;0.73;;
56770;SDS011;42641;59.794;17.616;2023-10-31T19:00:11;1.63;;;0.90;;
56770;SDS011;42641;59.794;17.616;2023-10-31T19:02:39;1.27;;;0.90;;